createdAt,value
2023-01-08T00:01:09.429Z,59.97
2023-01-08T00:03:38.368Z,49.50
2023-01-08T00:06:08.769Z,53.73
2023-01-08T00:08:36.806Z,56.50
2023-01-08T00:11:04.975Z,55.73
2023-01-08T00:13:34.503Z,54.97
2023-01-08T00:16:05.325Z,56.33
2023-01-08T00:18:33.720Z,51.77
2023-01-08T00:21:02.326Z,51.27
2023-01-08T00:23:30.551Z,44.77
2023-01-08T00:25:58.620Z,57.73
2023-01-08T00:28:26.734Z,54.80
2023-01-08T00:30:56.179Z,53.87
2023-01-08T00:33:24.241Z,56.77
2023-01-08T00:35:52.371Z,58.60
2023-01-08T00:38:20.413Z,56.03
2023-01-08T00:40:49.762Z,52.73
2023-01-08T00:43:17.820Z,44.30
2023-01-08T00:45:45.964Z,50.57
2023-01-08T00:48:15.378Z,37.40
2023-01-08T00:50:43.497Z,46.70
2023-01-08T00:53:11.533Z,44.40
2023-01-08T00:55:39.560Z,43.87
2023-01-08T00:58:07.696Z,40.43
2023-01-08T01:00:35.848Z,43.60
2023-01-08T01:03:03.897Z,42.17
2023-01-08T01:05:33.454Z,38.00
2023-01-08T01:08:01.485Z,38.73
2023-01-08T01:10:29.627Z,39.70
2023-01-08T01:12:57.641Z,36.13
2023-01-08T01:15:25.791Z,42.70
2023-01-08T01:17:53.843Z,38.63
2023-01-08T01:20:23.681Z,45.33
2023-01-08T01:22:53.105Z,41.93
2023-01-08T01:25:21.266Z,38.07
2023-01-08T01:27:49.403Z,37.73
2023-01-08T01:30:17.512Z,41.90
2023-01-08T01:32:45.549Z,43.60
2023-01-08T01:35:13.745Z,36.77
2023-01-08T01:37:42.178Z,38.97
2023-01-08T01:40:13.157Z,37.10
2023-01-08T01:42:41.174Z,43.10
2023-01-08T01:45:17.762Z,41.27
2023-01-08T01:47:49.829Z,39.20
2023-01-08T01:50:21.298Z,38.10
2023-01-08T01:52:53.270Z,36.83
2023-01-08T01:55:22.848Z,46.53
2023-01-08T01:58:05.779Z,50.40
2023-01-08T02:00:35.263Z,43.10
2023-01-08T02:03:05.974Z,49.17
2023-01-08T02:05:39.776Z,41.80
2023-01-08T02:08:12.789Z,36.40
2023-01-08T02:10:46.942Z,40.57
2023-01-08T02:13:20.507Z,40.03
2023-01-08T02:15:55.336Z,38.27
2023-01-08T02:18:31.183Z,35.50
2023-01-08T02:21:03.852Z,42.73
2023-01-08T02:23:38.580Z,47.17
2023-01-08T02:26:17.337Z,44.43
2023-01-08T02:28:50.567Z,45.77
2023-01-08T02:31:20.042Z,43.70
2023-01-08T02:33:48.106Z,46.43
2023-01-08T02:36:37.236Z,48.90
2023-01-08T02:39:26.669Z,42.90
2023-01-08T02:42:10.435Z,32.40
2023-01-08T02:44:55.302Z,41.13
2023-01-08T02:47:30.791Z,44.17
2023-01-08T02:50:09.770Z,41.33
2023-01-08T02:52:43.765Z,45.13
2023-01-08T02:55:13.291Z,44.73
2023-01-08T02:57:43.139Z,44.20
2023-01-08T03:00:13.032Z,44.97
2023-01-08T03:02:42.599Z,46.40
2023-01-08T03:05:18.021Z,41.13
2023-01-08T03:07:46.100Z,41.50
2023-01-08T03:10:14.504Z,46.90
2023-01-08T03:12:54.661Z,42.80
2023-01-08T03:15:30.282Z,41.97
2023-01-08T03:18:03.743Z,43.80
2023-01-08T03:20:34.319Z,47.97
2023-01-08T03:23:05.460Z,40.67
2023-01-08T03:25:35.174Z,38.70
2023-01-08T03:28:08.456Z,45.80
2023-01-08T03:30:37.432Z,42.27
2023-01-08T03:33:08.203Z,46.70
2023-01-08T03:35:41.297Z,45.93
2023-01-08T03:38:15.480Z,43.40
2023-01-08T03:40:46.605Z,40.93
2023-01-08T03:43:16.151Z,39.33
2023-01-08T03:45:50.123Z,42.20
2023-01-08T03:48:19.957Z,45.47
2023-01-08T03:50:48.446Z,39.00
2023-01-08T03:53:16.547Z,40.33
2023-01-08T03:55:44.690Z,41.57
2023-01-08T03:58:12.743Z,49.20
2023-01-08T04:00:42.363Z,42.37
2023-01-08T04:03:10.673Z,44.13
2023-01-08T04:05:38.755Z,45.07
2023-01-08T04:08:06.915Z,40.73
2023-01-08T04:10:35.014Z,44.30
2023-01-08T04:13:03.159Z,44.37
2023-01-08T04:15:31.274Z,48.73
2023-01-08T04:18:00.718Z,56.23
2023-01-08T04:20:28.898Z,49.17
2023-01-08T04:22:56.938Z,54.97
2023-01-08T04:25:24.991Z,50.90
2023-01-08T04:27:53.057Z,50.83
2023-01-08T04:30:21.142Z,51.27
2023-01-08T04:32:49.158Z,52.27
2023-01-08T04:35:18.664Z,57.97
2023-01-08T04:37:46.683Z,50.40
2023-01-08T04:40:14.842Z,53.37
2023-01-08T04:42:42.882Z,48.83
2023-01-08T04:45:11.831Z,56.07
2023-01-08T04:47:39.848Z,56.73
2023-01-08T04:50:08.760Z,60.60
2023-01-08T04:52:38.292Z,58.03
2023-01-08T04:55:07.176Z,61.50
2023-01-08T04:57:35.255Z,49.67
2023-01-08T05:00:03.285Z,54.27
2023-01-08T05:02:31.510Z,52.63
2023-01-08T05:04:59.721Z,55.97
2023-01-08T05:07:27.797Z,45.03
2023-01-08T05:09:57.204Z,59.17
2023-01-08T05:12:25.269Z,57.40
2023-01-08T05:14:53.281Z,50.90
2023-01-08T05:17:21.335Z,53.07
2023-01-08T05:19:49.659Z,57.27
2023-01-08T05:22:17.806Z,58.77
2023-01-08T05:24:45.832Z,59.33
2023-01-08T05:27:15.246Z,61.60
2023-01-08T05:29:43.275Z,64.27
2023-01-08T05:32:16.610Z,56.97
2023-01-08T05:34:44.889Z,62.07
2023-01-08T05:37:13.166Z,58.33
2023-01-08T05:39:41.179Z,65.90
2023-01-08T05:42:09.281Z,65.70
2023-01-08T05:44:38.686Z,63.97
2023-01-08T05:47:06.883Z,60.27
2023-01-08T05:49:34.892Z,63.43
2023-01-08T05:52:03.023Z,60.80
2023-01-08T05:54:31.085Z,56.57
2023-01-08T05:56:59.177Z,57.37
2023-01-08T05:59:27.266Z,57.07
2023-01-08T06:01:56.710Z,58.07
2023-01-08T06:04:24.841Z,56.40
2023-01-08T06:06:52.986Z,64.73
2023-01-08T06:09:21.235Z,56.50
2023-01-08T06:11:49.301Z,56.53
2023-01-08T06:14:18.037Z,68.67
2023-01-08T06:16:46.588Z,65.53
2023-01-08T06:19:16.017Z,62.33
2023-01-08T06:21:44.088Z,67.17
2023-01-08T06:24:12.241Z,63.13
2023-01-08T06:26:40.422Z,58.30
2023-01-08T06:29:09.324Z,74.33
2023-01-08T06:31:37.518Z,57.53
2023-01-08T06:34:05.712Z,59.97
2023-01-08T06:36:35.146Z,64.80
2023-01-08T06:39:03.180Z,61.60
2023-01-08T06:41:31.314Z,67.83
2023-01-08T06:43:59.349Z,60.80
2023-01-08T06:46:27.507Z,63.67
2023-01-08T06:48:55.635Z,60.97
2023-01-08T06:51:23.719Z,60.67
2023-01-08T06:53:53.167Z,65.63
2023-01-08T06:56:21.240Z,54.10
2023-01-08T06:58:49.269Z,63.60
2023-01-08T07:01:18.101Z,57.03
2023-01-08T07:03:46.985Z,56.13
2023-01-08T07:06:17.283Z,54.33
2023-01-08T07:08:45.665Z,56.43
2023-01-08T07:11:16.500Z,68.87
2023-01-08T07:13:44.714Z,62.27
2023-01-08T07:16:14.807Z,56.63
2023-01-08T07:18:43.236Z,58.07
2023-01-08T07:21:11.377Z,55.00
2023-01-08T07:23:39.420Z,67.20
2023-01-08T07:26:08.810Z,54.83
2023-01-08T07:28:38.368Z,65.60
2023-01-08T07:31:07.362Z,62.40
2023-01-08T07:33:35.899Z,72.07
2023-01-08T07:36:04.033Z,79.03
2023-01-08T07:38:32.139Z,76.63
2023-01-08T07:41:00.332Z,76.43
2023-01-08T07:43:30.044Z,70.60
2023-01-08T07:45:59.588Z,65.53
2023-01-08T07:48:27.602Z,69.27
2023-01-08T07:50:55.663Z,67.40
2023-01-08T07:53:23.692Z,64.63
2023-01-08T07:55:51.726Z,73.20
2023-01-08T07:58:19.796Z,73.20
2023-01-08T08:00:47.909Z,75.73
2023-01-08T08:03:17.351Z,65.13
2023-01-08T08:05:45.562Z,77.63
2023-01-08T08:08:14.361Z,73.80
2023-01-08T08:10:44.124Z,74.03
2023-01-08T08:13:12.716Z,81.77
2023-01-08T08:15:42.032Z,75.03
2023-01-08T08:18:10.451Z,77.73
2023-01-08T08:20:39.906Z,84.53
2023-01-08T08:23:09.330Z,91.73
2023-01-08T08:25:37.978Z,73.87
2023-01-08T08:28:06.928Z,79.83
2023-01-08T08:30:36.878Z,73.67
2023-01-08T08:33:07.289Z,77.10
2023-01-08T08:35:35.942Z,76.73
2023-01-08T08:38:06.027Z,61.63
2023-01-08T08:40:34.163Z,82.43
2023-01-08T08:43:04.257Z,71.87
2023-01-08T08:45:32.571Z,73.87
2023-01-08T08:48:00.624Z,74.13
2023-01-08T08:50:28.943Z,82.67
2023-01-08T08:53:00.646Z,73.60
2023-01-08T08:55:30.509Z,75.73
2023-01-08T08:58:04.929Z,77.73
2023-01-08T09:00:33.297Z,76.27
2023-01-08T09:03:01.528Z,80.03
2023-01-08T09:05:30.205Z,79.63
2023-01-08T09:07:58.274Z,103.23
2023-01-08T09:10:26.479Z,92.13
2023-01-08T09:12:56.251Z,101.40
2023-01-08T09:15:24.574Z,92.40
2023-01-08T09:17:56.478Z,90.33
2023-01-08T09:20:26.390Z,81.63
2023-01-08T09:22:54.714Z,90.60
2023-01-08T09:25:22.826Z,93.70
2023-01-08T09:27:50.894Z,92.30
2023-01-08T09:30:20.546Z,76.27
2023-01-08T09:32:48.575Z,75.27
2023-01-08T09:35:16.811Z,77.77
2023-01-08T09:37:44.838Z,91.63
2023-01-08T09:40:17.702Z,70.17
2023-01-08T09:42:50.705Z,80.87
2023-01-08T09:45:29.270Z,72.93
2023-01-08T09:47:59.809Z,75.83
2023-01-08T09:50:29.454Z,78.80
2023-01-08T09:52:58.318Z,72.33
2023-01-08T09:55:30.702Z,69.73
2023-01-08T09:58:02.921Z,88.50
2023-01-08T10:00:35.644Z,80.97
2023-01-08T10:03:03.741Z,70.07
2023-01-08T10:05:32.184Z,86.47
2023-01-08T10:08:00.239Z,74.83
2023-01-08T10:10:31.297Z,78.97
2023-01-08T10:13:00.325Z,81.93
2023-01-08T10:15:28.540Z,73.47
2023-01-08T10:18:03.607Z,63.90
2023-01-08T10:20:32.914Z,71.77
2023-01-08T10:23:11.300Z,72.10
2023-01-08T10:25:51.929Z,66.10
2023-01-08T10:28:22.910Z,73.93
2023-01-08T10:30:52.829Z,77.50
2023-01-08T10:33:25.869Z,81.87
2023-01-08T10:35:57.129Z,66.80
2023-01-08T10:38:31.514Z,79.97
2023-01-08T10:41:02.327Z,66.80
2023-01-08T10:43:35.240Z,68.37
2023-01-08T10:46:05.608Z,70.73
2023-01-08T10:48:39.202Z,73.60
2023-01-08T10:51:14.019Z,76.00
2023-01-08T10:53:42.603Z,63.70
2023-01-08T10:56:20.947Z,73.37
2023-01-08T10:58:49.497Z,69.57
2023-01-08T11:01:20.516Z,67.60
2023-01-08T11:03:53.015Z,69.90
2023-01-08T11:06:23.840Z,72.80
2023-01-08T11:08:53.978Z,72.90
2023-01-08T11:11:22.824Z,64.33
2023-01-08T11:14:00.014Z,66.13
2023-01-08T11:16:36.587Z,67.97
2023-01-08T11:19:07.186Z,67.30
2023-01-08T11:21:37.055Z,64.33
2023-01-08T11:24:13.401Z,63.30
2023-01-08T11:26:44.564Z,63.40
2023-01-08T11:29:16.723Z,63.20
2023-01-08T11:31:51.376Z,65.63
2023-01-08T11:34:28.118Z,59.43
2023-01-08T11:37:03.576Z,63.30
2023-01-08T11:39:32.409Z,60.17
2023-01-08T11:42:21.865Z,68.27
2023-01-08T11:45:09.054Z,60.70
2023-01-08T11:47:50.659Z,59.30
2023-01-08T11:50:23.949Z,63.27
2023-01-08T11:53:14.828Z,67.70
2023-01-08T11:55:50.926Z,60.73
2023-01-08T11:58:30.502Z,58.13
2023-01-08T12:01:14.971Z,61.80
2023-01-08T12:03:46.847Z,59.73
2023-01-08T12:06:36.904Z,68.30
2023-01-08T12:09:14.648Z,54.17
2023-01-08T12:11:51.635Z,62.33
2023-01-08T12:14:42.149Z,55.00
2023-01-08T12:17:32.650Z,52.70
2023-01-08T12:20:14.048Z,57.77
2023-01-08T12:22:51.177Z,55.07
2023-01-08T12:25:37.300Z,52.37
2023-01-08T12:28:21.268Z,58.47
2023-01-08T12:31:08.092Z,55.83
2023-01-08T12:33:39.903Z,47.73
2023-01-08T12:36:11.911Z,53.30
2023-01-08T12:38:44.730Z,54.37
2023-01-08T12:41:14.381Z,57.20
2023-01-08T12:43:51.338Z,63.77
2023-01-08T12:46:20.391Z,54.43
2023-01-08T12:48:51.996Z,56.67
2023-01-08T12:51:27.609Z,54.50
2023-01-08T12:54:05.067Z,55.27
2023-01-08T12:56:44.659Z,51.93
2023-01-08T12:59:25.002Z,58.40
2023-01-08T13:02:02.616Z,49.97
2023-01-08T13:04:41.227Z,56.40
2023-01-08T13:07:18.862Z,49.00
2023-01-08T13:09:56.646Z,51.73
2023-01-08T13:12:34.430Z,54.27
2023-01-08T13:15:03.128Z,49.03
2023-01-08T13:17:31.472Z,50.80
2023-01-08T13:20:02.634Z,52.53
2023-01-08T13:22:32.744Z,54.47
2023-01-08T13:25:30.339Z,48.40
2023-01-08T13:27:59.228Z,52.60
2023-01-08T13:30:39.770Z,54.70
2023-01-08T13:33:28.344Z,42.13
2023-01-08T13:36:16.765Z,57.57
2023-01-08T13:38:45.581Z,49.57
2023-01-08T13:41:28.706Z,50.73
2023-01-08T13:44:01.589Z,50.67
2023-01-08T13:46:30.700Z,45.33
2023-01-08T13:49:02.795Z,46.33
2023-01-08T13:51:42.368Z,54.67
2023-01-08T13:54:21.660Z,51.67
2023-01-08T13:56:57.172Z,51.30
2023-01-08T13:59:38.897Z,54.37
2023-01-08T14:02:31.161Z,51.27
2023-01-08T14:05:00.880Z,47.73
2023-01-08T14:07:30.672Z,53.90
2023-01-08T14:10:09.151Z,52.00
2023-01-08T14:12:38.668Z,54.23
2023-01-08T14:15:11.334Z,53.90
2023-01-08T14:17:39.471Z,52.17
2023-01-08T14:20:12.847Z,56.23
2023-01-08T14:22:43.182Z,45.43
2023-01-08T14:25:19.884Z,59.67
2023-01-08T14:27:58.533Z,59.40
2023-01-08T14:30:27.229Z,56.43
2023-01-08T14:32:56.930Z,54.47
2023-01-08T14:35:32.509Z,59.57
2023-01-08T14:38:02.234Z,59.47
2023-01-08T14:40:33.596Z,55.80
2023-01-08T14:43:08.758Z,54.13
2023-01-08T14:45:39.736Z,105.70
2023-01-08T14:48:14.884Z,56.83
2023-01-08T14:50:45.289Z,65.03
2023-01-08T14:53:23.350Z,63.50
2023-01-08T14:55:53.659Z,77.70
2023-01-08T14:58:25.714Z,71.70
2023-01-08T15:00:57.281Z,73.00
2023-01-08T15:03:32.567Z,74.50
2023-01-08T15:06:01.285Z,66.73
2023-01-08T15:08:35.406Z,84.23
2023-01-08T15:11:05.750Z,83.10
2023-01-08T15:13:38.126Z,90.17
2023-01-08T15:16:09.841Z,78.23
2023-01-08T15:18:44.322Z,80.90
2023-01-08T15:21:17.417Z,85.63
2023-01-08T15:23:49.652Z,90.97
2023-01-08T15:26:18.263Z,74.17
2023-01-08T15:28:52.026Z,84.10
2023-01-08T15:31:28.452Z,68.03
2023-01-08T15:33:57.143Z,67.70
2023-01-08T15:36:25.403Z,79.23
2023-01-08T15:38:53.569Z,86.33
2023-01-08T15:41:37.271Z,79.27
2023-01-08T15:44:07.136Z,81.60
2023-01-08T15:46:35.600Z,72.00
2023-01-08T15:49:03.626Z,76.70
2023-01-08T15:51:35.108Z,78.83
2023-01-08T15:54:46.811Z,89.27
2023-01-08T15:57:14.969Z,84.03
2023-01-08T15:59:44.344Z,103.77
2023-01-08T16:02:13.183Z,85.90
2023-01-08T16:04:41.408Z,95.63
2023-01-08T16:07:09.543Z,91.77
2023-01-08T16:09:37.588Z,86.00
2023-01-08T16:12:06.552Z,86.97
2023-01-08T16:14:37.948Z,99.23
2023-01-08T16:17:07.487Z,92.37
2023-01-08T16:19:35.562Z,94.20
2023-01-08T16:22:04.582Z,99.30
2023-01-08T16:24:33.969Z,95.60
2023-01-08T16:27:02.020Z,99.77
2023-01-08T16:29:30.266Z,102.53
2023-01-08T16:31:58.376Z,111.27
2023-01-08T16:34:27.815Z,82.40
2023-01-08T16:36:55.877Z,93.40
2023-01-08T16:39:23.906Z,88.30
2023-01-08T16:41:51.969Z,105.50
2023-01-08T16:44:21.433Z,103.23
2023-01-08T16:46:49.824Z,97.23
2023-01-08T16:49:17.927Z,96.83
2023-01-08T16:51:47.463Z,98.07
2023-01-08T16:54:16.900Z,105.53
2023-01-08T16:56:45.924Z,87.77
2023-01-08T16:59:22.889Z,93.83
2023-01-08T17:01:52.198Z,97.03
2023-01-08T17:04:20.441Z,97.27
2023-01-08T17:06:50.152Z,101.00
2023-01-08T17:09:18.326Z,93.27
2023-01-08T17:11:47.750Z,97.53
2023-01-08T17:14:15.874Z,101.30
2023-01-08T17:16:45.387Z,96.90
2023-01-08T17:19:13.843Z,94.40
2023-01-08T17:21:42.116Z,103.10
2023-01-08T17:24:11.581Z,104.13
2023-01-08T17:26:39.993Z,103.27
2023-01-08T17:29:08.028Z,100.23
2023-01-08T17:31:39.972Z,93.33
2023-01-08T17:34:09.457Z,108.67
2023-01-08T17:36:37.560Z,107.43
2023-01-08T17:39:05.681Z,92.90
2023-01-08T17:41:53.971Z,91.00
2023-01-08T17:44:22.423Z,108.73
2023-01-08T17:46:50.647Z,109.50
2023-01-08T17:49:19.001Z,96.87
2023-01-08T17:51:47.176Z,108.53
2023-01-08T17:54:17.367Z,106.07
2023-01-08T17:56:48.924Z,107.13
2023-01-08T17:59:18.432Z,110.57
2023-01-08T18:01:47.083Z,105.23
2023-01-08T18:04:15.990Z,103.40
2023-01-08T18:06:44.716Z,104.97
2023-01-08T18:09:13.391Z,102.57
2023-01-08T18:11:42.274Z,114.67
2023-01-08T18:14:13.736Z,91.27
2023-01-08T18:16:45.363Z,110.27
2023-01-08T18:19:14.322Z,102.57
2023-01-08T18:21:42.617Z,109.00
2023-01-08T18:24:11.028Z,110.97
2023-01-08T18:26:39.153Z,96.63
2023-01-08T18:29:07.256Z,105.73
2023-01-08T18:31:36.791Z,110.10
2023-01-08T18:34:04.936Z,123.67
2023-01-08T18:36:33.037Z,105.60
2023-01-08T18:39:01.207Z,116.17
2023-01-08T18:41:46.456Z,111.67
2023-01-08T18:44:14.547Z,118.10
2023-01-08T18:46:45.395Z,120.80
2023-01-08T18:49:13.539Z,108.50
2023-01-08T18:51:41.674Z,115.80
2023-01-08T18:54:11.243Z,115.07
2023-01-08T18:56:39.834Z,101.13
2023-01-08T18:59:08.448Z,122.07
2023-01-08T19:01:37.210Z,108.33
2023-01-08T19:04:07.385Z,112.80
2023-01-08T19:06:36.081Z,107.93
2023-01-08T19:09:04.190Z,109.77
2023-01-08T19:11:32.374Z,112.97
2023-01-08T19:14:00.465Z,109.17
2023-01-08T19:16:28.621Z,128.40
2023-01-08T19:18:57.846Z,115.37
2023-01-08T19:21:27.360Z,135.33
2023-01-08T19:23:55.475Z,115.73
2023-01-08T19:26:23.595Z,134.13
2023-01-08T19:28:51.634Z,117.37
2023-01-08T19:31:19.898Z,121.10
2023-01-08T19:33:48.001Z,112.10
2023-01-08T19:36:18.662Z,101.33
2023-01-08T19:38:48.544Z,118.17
2023-01-08T19:41:34.045Z,102.03
2023-01-08T19:44:02.147Z,112.80
2023-01-08T19:46:30.439Z,110.33
2023-01-08T19:49:00.366Z,118.13
2023-01-08T19:51:30.232Z,109.40
2023-01-08T19:54:00.940Z,118.87
2023-01-08T19:56:30.516Z,114.20
2023-01-08T19:58:59.162Z,105.20
2023-01-08T20:01:28.992Z,111.00
2023-01-08T20:03:57.848Z,122.20
2023-01-08T20:06:27.453Z,114.63
2023-01-08T20:08:59.794Z,112.50
2023-01-08T20:11:29.108Z,106.30
2023-01-08T20:14:00.415Z,100.63
2023-01-08T20:16:29.675Z,97.97
2023-01-08T20:18:58.260Z,102.90
2023-01-08T20:21:26.400Z,113.70
2023-01-08T20:24:01.831Z,111.87
2023-01-08T20:26:31.631Z,123.77
2023-01-08T20:28:59.970Z,110.27
2023-01-08T20:31:31.157Z,110.83
2023-01-08T20:34:00.443Z,108.67
2023-01-08T20:36:30.995Z,112.37
2023-01-08T20:39:02.759Z,119.47
2023-01-08T20:41:30.897Z,93.53
2023-01-08T20:43:59.069Z,97.43
2023-01-08T20:46:29.630Z,93.67
2023-01-08T20:48:59.681Z,103.67
2023-01-08T20:51:27.876Z,110.30
2023-01-08T20:53:55.939Z,114.20
2023-01-08T20:56:25.506Z,114.50
2023-01-08T20:58:53.609Z,98.30
2023-01-08T21:01:23.921Z,106.70
2023-01-08T21:03:55.804Z,100.37
2023-01-08T21:06:25.458Z,103.37
2023-01-08T21:08:55.924Z,95.90
2023-01-08T21:11:26.975Z,100.93
2023-01-08T21:13:56.583Z,102.57
2023-01-08T21:16:27.021Z,126.23
2023-01-08T21:18:55.600Z,107.10
2023-01-08T21:21:25.234Z,95.70
2023-01-08T21:23:53.335Z,103.20
2023-01-08T21:26:21.646Z,114.30
2023-01-08T21:28:51.164Z,99.70
2023-01-08T21:31:21.556Z,101.10
2023-01-08T21:33:51.314Z,103.63
2023-01-08T21:36:21.839Z,103.37
2023-01-08T21:38:50.350Z,109.27
2023-01-08T21:41:34.401Z,114.10
2023-01-08T21:44:22.041Z,94.93
2023-01-08T21:46:50.464Z,109.47
2023-01-08T21:49:18.647Z,113.60
2023-01-08T21:52:04.182Z,109.27
2023-01-08T21:54:32.297Z,117.87
2023-01-08T21:57:00.405Z,106.87
2023-01-08T21:59:29.796Z,105.30
2023-01-08T22:01:57.932Z,118.27
2023-01-08T22:04:26.073Z,111.33
2023-01-08T22:06:54.323Z,106.87
2023-01-08T22:09:22.470Z,117.80
2023-01-08T22:11:50.578Z,114.27
2023-01-08T22:14:18.699Z,106.33
2023-01-08T22:16:48.203Z,127.13
2023-01-08T22:19:16.220Z,122.70
2023-01-08T22:21:44.383Z,113.10
2023-01-08T22:24:12.508Z,113.83
2023-01-08T22:26:40.595Z,127.53
2023-01-08T22:29:08.707Z,120.07
2023-01-08T22:31:36.890Z,129.30
2023-01-08T22:34:06.265Z,131.67
2023-01-08T22:36:34.329Z,118.70
2023-01-08T22:39:02.368Z,119.13
2023-01-08T22:41:30.486Z,132.73
2023-01-08T22:43:58.793Z,119.40
2023-01-08T22:46:27.138Z,126.23
2023-01-08T22:48:55.341Z,123.97
2023-01-08T22:51:27.238Z,116.33
2023-01-08T22:53:55.656Z,126.60
2023-01-08T22:56:24.487Z,124.40
2023-01-08T22:58:52.850Z,120.40
2023-01-08T23:01:23.223Z,134.20
2023-01-08T23:03:52.338Z,128.97
2023-01-08T23:06:22.618Z,121.63
2023-01-08T23:08:52.307Z,129.97
2023-01-08T23:11:21.842Z,122.70
2023-01-08T23:13:51.053Z,121.20
2023-01-08T23:16:22.430Z,116.87
2023-01-08T23:18:52.612Z,121.20
2023-01-08T23:21:22.604Z,104.67
2023-01-08T23:23:52.235Z,100.33
2023-01-08T23:26:22.155Z,97.23
2023-01-08T23:28:52.172Z,104.83
2023-01-08T23:31:23.374Z,92.37
2023-01-08T23:33:51.526Z,89.47
2023-01-08T23:36:21.208Z,99.97
2023-01-08T23:38:55.021Z,96.70
2023-01-08T23:41:25.998Z,103.67
2023-01-08T23:43:54.754Z,113.13
2023-01-08T23:46:22.964Z,115.53
2023-01-08T23:48:51.064Z,119.30
2023-01-08T23:51:19.124Z,122.37
2023-01-08T23:53:47.606Z,126.57
2023-01-08T23:56:17.201Z,125.27
2023-01-08T23:58:45.793Z,122.53
